Time;durP1;ratioP1;P1;durP2;ratioP2;P2;SDS_P1;SDS_P2;PMS_P1;PMS_P2;Temp;Humidity;BMP_temperature;BMP_pressure;BME280_temperature;BME280_humidity;BME280_pressure;Samples;Min_cycle;Max_cycle;Signal;HPM_P1;HPM_P2
2024/01/06 00:01:05;;;;;;;10.63;6.27;;;;;;;;;;5019044;28;20061;-78
2024/01/06 00:04:00;;;;;;;12.45;7.35;;;;;;;;;;5001901;28;20094;-77
2024/01/06 00:06:55;;;;;;;;;;;;;;;;;;;;;
2024/01/06 00:09:46;;;;;;;12.20;6.80;;;;;;;;;;5015450;28;20018;-78
2024/01/06 00:14:59;;;;;;;12.67;6.97;;;;;;;;;;5018993;28;20026;-77
2024/01/06 00:17:47;;;;;;;13.03;7.40;;;;;;;;;;5003727;28;20014;-77
2024/01/06 00:20:21;;;;;;;14.77;7.43;;;;;;;;;;5011714;28;20069;-77
2024/01/06 00:23:02;;;;;;;;;;;;;;;;;;;;;
2024/01/06 00:25:30;;;;;;;13.17;8.40;;;;;;;;;;5012447;28;20046;-77
2024/01/06 00:27:56;;;;;;;11.60;8.03;;;;;;;;;;5011154;28;20018;-77
2024/01/06 00:30:22;;;;;;;13.70;9.07;;;;;;;;;;5011379;28;20011;-77
2024/01/06 00:32:58;;;;;;;;;;;;;;;;;;;;;
2024/01/06 00:38:26;;;;;;;;;;;;;;;;;;;;;
2024/01/06 00:41:00;;;;;;;14.70;8.63;;;;;;;;;;5011113;28;20057;-78
2024/01/06 00:46:42;;;;;;;14.07;9.73;;;;;;;;;;5011696;28;20057;-78
2024/01/06 00:49:10;;;;;;;15.93;10.50;;;;;;;;;;5010086;28;20026;-77
2024/01/06 00:51:43;;;;;;;17.87;11.47;;;;;;;;;;4999882;28;20037;-77
2024/01/06 00:54:09;;;;;;;15.23;10.50;;;;;;;;;;5019678;28;20067;-78
2024/01/06 00:56:38;;;;;;;18.73;11.40;;;;;;;;;;4995898;28;20053;-78
2024/01/06 00:59:09;;;;;;;20.40;12.03;;;;;;;;;;5001315;28;20053;-77
2024/01/06 01:01:42;;;;;;;25.77;13.40;;;;;;;;;;5018003;28;20022;-77
2024/01/06 01:04:08;;;;;;;22.90;13.53;;;;;;;;;;5012253;28;20025;-77
2024/01/06 01:06:50;;;;;;;26.77;12.63;;;;;;;;;;4999688;28;20026;-77
2024/01/06 01:09:21;;;;;;;24.37;13.67;;;;;;;;;;4999395;28;20052;-77
2024/01/06 01:11:52;;;;;;;23.30;14.07;;;;;;;;;;5015439;28;20057;-77
2024/01/06 01:14:22;;;;;;;23.27;14.63;;;;;;;;;;4998770;28;20026;-81
2024/01/06 01:17:10;;;;;;;28.83;15.67;;;;;;;;;;5139282;27;20429;-76
2024/01/06 01:19:36;;;;;;;27.00;15.30;;;;;;;;;;5105210;28;20035;-77
2024/01/06 01:22:09;;;;;;;32.90;17.80;;;;;;;;;;5123974;27;20029;-77
2024/01/06 01:24:43;;;;;;;31.97;16.70;;;;;;;;;;5119038;27;20055;-77
2024/01/06 01:27:16;;;;;;;29.73;16.10;;;;;;;;;;5102660;28;20064;-78
2024/01/06 01:29:47;;;;;;;30.60;17.57;;;;;;;;;;5125709;27;20036;-77
2024/01/06 01:32:32;;;;;;;30.20;16.87;;;;;;;;;;5103835;28;20027;-77
2024/01/06 01:34:58;;;;;;;30.57;17.23;;;;;;;;;;5100567;28;20048;-77
2024/01/06 01:37:26;;;;;;;32.33;18.53;;;;;;;;;;5124768;27;20092;-77
2024/01/06 01:39:59;;;;;;;34.07;18.27;;;;;;;;;;5102366;28;20013;-77
2024/01/06 01:42:41;;;;;;;32.40;17.40;;;;;;;;;;5103645;28;20024;-77
2024/01/06 01:45:07;;;;;;;32.83;18.13;;;;;;;;;;5100983;28;20017;-77
2024/01/06 01:47:41;;;;;;;33.97;18.30;;;;;;;;;;5104413;28;20108;-78
2024/01/06 01:50:37;;;;;;;;;;;;;;;;;;;;;
2024/01/06 01:53:08;;;;;;;37.73;19.97;;;;;;;;;;5102548;28;20035;-78
2024/01/06 01:55:42;;;;;;;43.40;20.17;;;;;;;;;;5103954;28;20043;-77
2024/01/06 01:58:09;;;;;;;36.83;18.90;;;;;;;;;;5103357;28;20020;-77
2024/01/06 02:00:41;;;;;;;39.37;19.80;;;;;;;;;;5102444;28;20022;-77
2024/01/06 02:03:34;;;;;;;43.63;21.95;;;;;;;;;;5102000;28;20028;-77
2024/01/06 02:06:07;;;;;;;51.47;20.30;;;;;;;;;;5103219;28;20092;-77
2024/01/06 02:08:39;;;;;;;36.53;18.90;;;;;;;;;;5101541;28;20021;-77
2024/01/06 02:11:08;;;;;;;38.78;19.95;;;;;;;;;;5124437;28;20020;-77
2024/01/06 02:13:37;;;;;;;40.73;19.17;;;;;;;;;;5102009;28;20056;-77
2024/01/06 02:16:14;;;;;;;;;;;;;;;;;;;;;
2024/01/06 02:18:41;;;;;;;42.33;20.10;;;;;;;;;;5104640;28;20036;-77
2024/01/06 02:21:18;;;;;;;48.03;21.20;;;;;;;;;;5102408;28;20028;-77
2024/01/06 02:26:38;;;;;;;46.10;21.10;;;;;;;;;;5102002;28;20277;-78
2024/01/06 02:29:07;;;;;;;41.27;19.73;;;;;;;;;;5092784;28;20044;-78
2024/01/06 02:31:51;;;;;;;47.90;19.67;;;;;;;;;;5103878;28;20028;-78
2024/01/06 02:34:25;;;;;;;46.17;18.73;;;;;;;;;;5109664;28;20061;-78
2024/01/06 02:36:51;;;;;;;48.70;21.03;;;;;;;;;;5092988;28;20053;-77
2024/01/06 02:39:17;;;;;;;43.03;19.90;;;;;;;;;;5088726;28;20031;-78
2024/01/06 02:41:43;;;;;;;45.73;20.00;;;;;;;;;;5086634;28;20073;-77
2024/01/06 02:44:19;;;;;;;52.07;20.63;;;;;;;;;;5134329;22;20040;-78
2024/01/06 02:46:50;;;;;;;41.43;20.13;;;;;;;;;;5079357;28;20009;-78
2024/01/06 02:49:21;;;;;;;51.13;20.80;;;;;;;;;;5073211;28;20013;-78
2024/01/06 02:51:53;;;;;;;48.17;21.17;;;;;;;;;;5069971;28;20008;-78
2024/01/06 02:54:31;;;;;;;49.17;19.60;;;;;;;;;;5080068;28;20072;-78
2024/01/06 02:57:18;;;;;;;48.60;20.23;;;;;;;;;;5071166;28;20045;-78
2024/01/06 02:59:49;;;;;;;53.50;20.50;;;;;;;;;;5074466;28;20029;-78
2024/01/06 03:05:17;;;;;;;42.23;20.70;;;;;;;;;;5070867;28;20028;-78
2024/01/06 03:07:45;;;;;;;47.70;20.93;;;;;;;;;;5074105;28;20048;-78
2024/01/06 03:10:16;;;;;;;50.13;20.40;;;;;;;;;;5071164;28;20024;-78
2024/01/06 03:12:49;;;;;;;51.70;20.57;;;;;;;;;;5072073;28;20044;-78
2024/01/06 03:15:40;;;;;;;51.47;20.90;;;;;;;;;;5070483;28;20029;-78
2024/01/06 03:18:26;;;;;;;59.97;22.97;;;;;;;;;;5071681;28;20016;-79
2024/01/06 03:20:52;;;;;;;53.20;21.70;;;;;;;;;;5089466;28;20048;-78
2024/01/06 03:23:37;;;;;;;57.33;21.87;;;;;;;;;;5073905;28;20228;-79
2024/01/06 03:26:24;;;;;;;52.97;21.97;;;;;;;;;;5068636;28;20032;-79
2024/01/06 03:28:52;;;;;;;64.70;22.50;;;;;;;;;;5080316;28;20037;-78
2024/01/06 03:31:28;;;;;;;73.73;23.50;;;;;;;;;;5069326;28;20047;-78
2024/01/06 03:33:56;;;;;;;61.10;24.30;;;;;;;;;;5074467;28;20115;-79
2024/01/06 03:36:25;;;;;;;63.10;24.87;;;;;;;;;;5071607;28;20048;-78
2024/01/06 03:39:03;;;;;;;67.37;24.77;;;;;;;;;;5066873;28;20068;-78
2024/01/06 03:41:29;;;;;;;76.37;27.57;;;;;;;;;;5070345;28;20021;-79
2024/01/06 03:43:55;;;;;;;72.20;27.13;;;;;;;;;;5071020;28;20021;-79
2024/01/06 03:46:39;;;;;;;80.63;28.80;;;;;;;;;;5070520;28;20033;-78
2024/01/06 03:49:10;;;;;;;71.83;26.70;;;;;;;;;;5070735;28;20041;-79
2024/01/06 03:51:41;;;;;;;84.10;29.30;;;;;;;;;;5072255;28;20040;-78
2024/01/06 03:54:15;;;;;;;84.20;31.00;;;;;;;;;;5072277;28;20104;-78
2024/01/06 03:56:43;;;;;;;111.93;32.97;;;;;;;;;;5066910;28;20044;-78
2024/01/06 03:59:14;;;;;;;112.30;35.83;;;;;;;;;;5070440;28;20031;-78
2024/01/06 04:01:42;;;;;;;110.03;35.37;;;;;;;;;;5089094;28;20026;-78
2024/01/06 04:04:18;;;;;;;109.43;35.90;;;;;;;;;;5072430;28;20029;-78
2024/01/06 04:06:50;;;;;;;113.33;36.17;;;;;;;;;;5073614;28;20021;-79
2024/01/06 04:09:26;;;;;;;;;;;;;;;;;;;;;
2024/01/06 04:12:02;;;;;;;123.20;37.77;;;;;;;;;;5072823;28;20055;-78
2024/01/06 04:14:28;;;;;;;136.13;39.10;;;;;;;;;;5089335;28;20047;-78
2024/01/06 04:16:57;;;;;;;140.47;40.83;;;;;;;;;;5072865;28;20067;-78
2024/01/06 04:19:33;;;;;;;;;;;;;;;;;;;;;
2024/01/06 04:22:05;;;;;;;136.57;40.73;;;;;;;;;;5072909;28;20048;-79
2024/01/06 04:24:37;;;;;;;121.82;40.35;;;;;;;;;;5073007;28;20041;-78
2024/01/06 04:27:06;;;;;;;144.05;43.10;;;;;;;;;;5071924;28;20044;-79
2024/01/06 04:29:37;;;;;;;153.73;40.87;;;;;;;;;;5070169;28;20056;-79
2024/01/06 04:32:21;;;;;;;143.17;42.87;;;;;;;;;;5067994;28;20016;-78
2024/01/06 04:34:50;;;;;;;150.07;42.57;;;;;;;;;;5076361;28;20029;-77
2024/01/06 04:37:23;;;;;;;147.53;43.27;;;;;;;;;;5074761;28;20197;-79
2024/01/06 04:40:12;;;;;;;150.53;42.57;;;;;;;;;;5068812;28;20041;-78
2024/01/06 04:42:38;;;;;;;152.50;42.27;;;;;;;;;;5073953;28;20039;-78
2024/01/06 04:45:10;;;;;;;160.00;45.47;;;;;;;;;;5076336;28;20029;-78
2024/01/06 04:47:43;;;;;;;143.85;42.28;;;;;;;;;;5072600;28;20013;-78
2024/01/06 04:50:12;;;;;;;157.77;42.27;;;;;;;;;;5076723;28;20028;-78
2024/01/06 04:52:40;;;;;;;143.13;42.57;;;;;;;;;;5091271;28;20008;-78
2024/01/06 04:58:00;;;;;;;132.67;38.60;;;;;;;;;;5074975;28;20025;-78
2024/01/06 05:00:29;;;;;;;125.10;37.50;;;;;;;;;;5080146;28;20059;-78
2024/01/06 05:02:55;;;;;;;128.73;37.20;;;;;;;;;;5076113;28;20025;-78
2024/01/06 05:05:23;;;;;;;122.20;34.57;;;;;;;;;;5083720;28;20025;-78
2024/01/06 05:08:06;;;;;;;126.67;36.40;;;;;;;;;;5071558;28;20001;-78
2024/01/06 05:10:49;;;;;;;114.63;36.00;;;;;;;;;;5076787;28;20359;-77
2024/01/06 05:13:18;;;;;;;112.00;32.90;;;;;;;;;;5079414;28;20037;-78
2024/01/06 05:15:46;;;;;;;110.87;33.43;;;;;;;;;;5149941;22;20048;-78
2024/01/06 05:18:12;;;;;;;88.70;28.20;;;;;;;;;;5065602;28;20069;-77
2024/01/06 05:20:40;;;;;;;83.43;26.03;;;;;;;;;;5073042;28;20060;-78
2024/01/06 05:23:06;;;;;;;76.47;24.43;;;;;;;;;;5072617;28;20024;-78
2024/01/06 05:25:32;;;;;;;84.97;24.67;;;;;;;;;;5076716;28;20017;-78
2024/01/06 05:28:06;;;;;;;76.67;24.40;;;;;;;;;;5072556;28;20006;-78
2024/01/06 05:30:40;;;;;;;65.33;21.50;;;;;;;;;;5076365;28;20037;-78
2024/01/06 05:33:17;;;;;;;68.87;22.40;;;;;;;;;;5074220;28;20016;-79
2024/01/06 05:35:48;;;;;;;67.57;22.23;;;;;;;;;;5064203;28;20076;-78
2024/01/06 05:38:17;;;;;;;65.83;22.10;;;;;;;;;;5066993;28;20021;-78
2024/01/06 05:40:43;;;;;;;70.47;21.90;;;;;;;;;;5074341;28;20020;-78
2024/01/06 05:43:15;;;;;;;76.83;20.57;;;;;;;;;;5072153;28;20044;-78
2024/01/06 05:45:46;;;;;;;63.53;19.50;;;;;;;;;;5062737;28;20017;-78
2024/01/06 05:48:23;;;;;;;67.40;20.33;;;;;;;;;;5063950;28;20017;-77
2024/01/06 05:50:52;;;;;;;54.90;17.27;;;;;;;;;;5074612;28;20084;-78
2024/01/06 05:53:23;;;;;;;58.93;17.27;;;;;;;;;;5071236;28;20017;-78
2024/01/06 05:55:49;;;;;;;56.23;17.47;;;;;;;;;;5068203;28;20048;-77
2024/01/06 05:58:22;;;;;;;56.87;17.67;;;;;;;;;;5076095;28;20037;-78
2024/01/06 06:01:07;;;;;;;53.80;16.40;;;;;;;;;;5070292;28;20015;-78
2024/01/06 06:03:37;;;;;;;54.03;15.90;;;;;;;;;;5072465;28;20077;-78
2024/01/06 06:06:06;;;;;;;56.83;18.07;;;;;;;;;;5073967;28;20026;-78
2024/01/06 06:08:52;;;;;;;48.57;14.47;;;;;;;;;;5071109;28;20022;-77
2024/01/06 06:11:18;;;;;;;44.43;14.37;;;;;;;;;;5078413;28;20021;-77
2024/01/06 06:13:47;;;;;;;51.83;14.27;;;;;;;;;;5079010;28;20005;-78
2024/01/06 06:16:18;;;;;;;46.93;15.23;;;;;;;;;;5080853;28;20084;-78
2024/01/06 06:18:47;;;;;;;51.10;14.23;;;;;;;;;;5073621;28;20025;-78
2024/01/06 06:21:22;;;;;;;54.03;14.33;;;;;;;;;;5073483;28;20026;-78
2024/01/06 06:23:51;;;;;;;46.43;14.47;;;;;;;;;;5075632;28;20039;-78
2024/01/06 06:26:24;;;;;;;55.23;15.90;;;;;;;;;;5075110;28;20269;-78
2024/01/06 06:29:18;;;;;;;62.70;16.87;;;;;;;;;;5074120;28;20032;-78
2024/01/06 06:31:54;;;;;;;59.67;15.40;;;;;;;;;;5070455;28;20009;-77
2024/01/06 06:34:23;;;;;;;55.27;16.43;;;;;;;;;;5072774;28;20049;-78
2024/01/06 06:36:52;;;;;;;66.77;18.10;;;;;;;;;;5074848;28;20033;-78
2024/01/06 06:39:31;;;;;;;;;;;;;;;;;;;;;
2024/01/06 06:42:04;;;;;;;66.20;17.60;;;;;;;;;;5074323;28;20064;-78
2024/01/06 06:44:35;;;;;;;56.63;16.57;;;;;;;;;;5105723;23;20030;-78
2024/01/06 06:47:04;;;;;;;65.77;17.40;;;;;;;;;;5033525;28;20014;-79
2024/01/06 06:52:21;;;;;;;61.50;18.40;;;;;;;;;;5033298;28;20022;-78
2024/01/06 06:54:52;;;;;;;62.50;17.50;;;;;;;;;;5032715;28;20028;-78
2024/01/06 06:57:24;;;;;;;71.00;18.13;;;;;;;;;;5033927;28;20036;-79
2024/01/06 07:00:00;;;;;;;54.37;17.97;;;;;;;;;;5049847;28;20029;-78
2024/01/06 07:02:32;;;;;;;63.53;19.50;;;;;;;;;;5050591;28;20060;-78
2024/01/06 07:05:02;;;;;;;68.07;19.80;;;;;;;;;;5050727;28;20041;-78
2024/01/06 07:07:28;;;;;;;69.37;18.43;;;;;;;;;;5047589;28;20049;-79
2024/01/06 07:09:54;;;;;;;62.57;19.47;;;;;;;;;;5032001;28;20030;-77
2024/01/06 07:12:23;;;;;;;55.37;18.37;;;;;;;;;;5029632;28;20097;-77
2024/01/06 07:14:56;;;;;;;56.53;18.67;;;;;;;;;;5047985;28;20021;-77
2024/01/06 07:17:30;;;;;;;59.40;18.70;;;;;;;;;;5049748;28;20022;-78
2024/01/06 07:19:58;;;;;;;55.70;17.37;;;;;;;;;;5032689;28;20053;-78
2024/01/06 07:22:34;;;;;;;55.37;18.00;;;;;;;;;;5030912;28;20041;-78
2024/01/06 07:25:03;;;;;;;56.43;17.50;;;;;;;;;;5030400;28;20014;-78
2024/01/06 07:27:29;;;;;;;60.67;19.67;;;;;;;;;;5030509;28;20149;-78
2024/01/06 07:30:02;;;;;;;59.53;18.53;;;;;;;;;;5031622;28;20022;-77
2024/01/06 07:32:31;;;;;;;63.63;17.90;;;;;;;;;;5034513;28;20061;-78
2024/01/06 07:34:59;;;;;;;65.30;20.67;;;;;;;;;;5035369;28;20045;-78
2024/01/06 07:37:32;;;;;;;66.37;19.20;;;;;;;;;;5030211;28;20018;-78
2024/01/06 07:40:07;;;;;;;62.20;19.27;;;;;;;;;;5046190;28;20150;-78
2024/01/06 07:42:41;;;;;;;65.43;18.67;;;;;;;;;;5046979;28;20042;-78
2024/01/06 07:45:44;;;;;;;70.40;19.30;;;;;;;;;;5046318;28;20647;-78
2024/01/06 07:48:10;;;;;;;65.78;18.65;;;;;;;;;;5046942;28;20018;-78
2024/01/06 07:53:37;;;;;;;71.83;19.20;;;;;;;;;;5031955;28;20025;-78
2024/01/06 07:56:09;;;;;;;76.87;19.50;;;;;;;;;;5045660;28;20030;-78
2024/01/06 07:58:44;;;;;;;68.22;19.73;;;;;;;;;;5030036;28;20093;-78
2024/01/06 08:01:18;;;;;;;58.00;18.30;;;;;;;;;;5029789;28;20090;-78
2024/01/06 08:04:14;;;;;;;;;;;;;;;;;;;;;
2024/01/06 08:06:40;;;;;;;55.33;18.20;;;;;;;;;;5030684;28;20041;-78
2024/01/06 08:09:09;;;;;;;63.13;18.43;;;;;;;;;;5046703;28;20081;-78
2024/01/06 08:11:35;;;;;;;59.37;19.80;;;;;;;;;;5038419;28;20052;-77
2024/01/06 08:14:04;;;;;;;55.90;16.57;;;;;;;;;;5031695;28;20057;-78
2024/01/06 08:16:32;;;;;;;51.93;16.97;;;;;;;;;;5031035;28;20065;-78
2024/01/06 08:19:02;;;;;;;55.83;17.73;;;;;;;;;;5046819;28;20034;-79
2024/01/06 08:24:28;;;;;;;57.13;18.30;;;;;;;;;;5209949;22;20036;-77
2024/01/06 08:26:57;;;;;;;51.83;17.60;;;;;;;;;;5068815;28;20048;-77
2024/01/06 08:29:41;;;;;;;61.47;18.27;;;;;;;;;;5080622;28;20009;-77
2024/01/06 08:32:07;;;;;;;48.37;16.17;;;;;;;;;;5094221;28;20190;-77
2024/01/06 08:34:38;;;;;;;51.93;18.37;;;;;;;;;;5071432;28;20008;-77
2024/01/06 08:39:53;;;;;;;55.90;17.33;;;;;;;;;;5069171;28;20048;-78
2024/01/06 08:42:26;;;;;;;55.90;17.37;;;;;;;;;;5068848;28;20029;-77
2024/01/06 08:44:58;;;;;;;53.63;16.80;;;;;;;;;;5069993;28;20021;-78
2024/01/06 08:47:37;;;;;;;56.55;18.90;;;;;;;;;;5069469;28;20009;-77
2024/01/06 08:50:04;;;;;;;61.60;19.57;;;;;;;;;;5069920;28;20017;-77
2024/01/06 08:52:30;;;;;;;58.20;18.37;;;;;;;;;;5067211;28;20018;-77
2024/01/06 08:54:58;;;;;;;57.23;18.20;;;;;;;;;;5071734;28;20029;-78
2024/01/06 08:57:24;;;;;;;58.97;17.73;;;;;;;;;;5071957;28;20102;-79
2024/01/06 08:59:53;;;;;;;59.90;18.27;;;;;;;;;;5068158;28;20039;-78
2024/01/06 09:02:24;;;;;;;58.90;17.33;;;;;;;;;;5085084;28;20059;-79
2024/01/06 09:05:00;;;;;;;55.50;18.00;;;;;;;;;;5083674;28;20021;-78
2024/01/06 09:07:33;;;;;;;53.67;17.73;;;;;;;;;;5068714;28;20036;-79
2024/01/06 09:10:02;;;;;;;52.20;17.97;;;;;;;;;;5085788;28;20017;-78
2024/01/06 09:12:44;;;;;;;58.67;17.47;;;;;;;;;;5070148;28;20025;-78
2024/01/06 09:15:16;;;;;;;;;;;;;;;;;;5085956;28;20029;-78
2024/01/06 09:17:42;;;;;;;47.97;15.07;;;;;;;;;;5085601;28;19909;-78
2024/01/06 09:20:17;;;;;;;56.27;17.93;;;;;;;;;;5084253;28;20025;-78
2024/01/06 09:22:48;;;;;;;51.87;16.40;;;;;;;;;;5084342;28;20079;-78
2024/01/06 09:25:17;;;;;;;43.27;14.67;;;;;;;;;;5069099;28;20022;-78
2024/01/06 09:27:53;;;;;;;41.87;15.43;;;;;;;;;;5068583;28;20020;-79
2024/01/06 09:33:15;;;;;;;43.22;16.27;;;;;;;;;;5069969;28;20017;-79
2024/01/06 09:35:42;;;;;;;46.70;16.50;;;;;;;;;;5071979;28;20025;-78
2024/01/06 09:38:08;;;;;;;46.20;17.50;;;;;;;;;;5072488;28;20055;-79
2024/01/06 09:40:51;;;;;;;;;;;;;;;;;;;;;
2024/01/06 09:43:19;;;;;;;40.93;15.23;;;;;;;;;;5074729;28;20053;-79
2024/01/06 09:45:57;;;;;;;42.10;13.87;;;;;;;;;;5073759;28;20029;-78
2024/01/06 09:48:33;;;;;;;36.63;13.47;;;;;;;;;;5057040;28;20021;-78
2024/01/06 09:51:08;;;;;;;39.87;14.07;;;;;;;;;;5070656;28;20025;-79
2024/01/06 09:53:36;;;;;;;35.10;13.93;;;;;;;;;;5072043;28;20021;-79
2024/01/06 09:56:05;;;;;;;35.53;14.97;;;;;;;;;;5070897;28;20088;-79
2024/01/06 09:58:37;;;;;;;35.80;14.03;;;;;;;;;;5073301;28;20032;-79
2024/01/06 10:01:16;;;;;;;;;;;;;;;;;;;;;
2024/01/06 10:03:48;;;;;;;37.03;13.93;;;;;;;;;;5072426;28;20060;-78
2024/01/06 10:06:17;;;;;;;34.10;14.40;;;;;;;;;;5089128;28;20048;-79
2024/01/06 10:08:55;;;;;;;32.70;12.93;;;;;;;;;;5072739;28;20104;-78
2024/01/06 10:11:41;;;;;;;33.73;14.23;;;;;;;;;;5087729;28;20066;-79
2024/01/06 10:14:23;;;;;;;;;;;;;;;;;;;;;
2024/01/06 10:16:52;;;;;;;30.63;12.38;;;;;;;;;;5072415;28;20064;-79
2024/01/06 10:19:21;;;;;;;30.57;14.00;;;;;;;;;;5074245;28;20014;-78
2024/01/06 10:27:33;;;;;;;35.40;13.30;;;;;;;;;;5064657;28;20260;-78
2024/01/06 10:30:18;;;;;;;;;;;;;;;;;;;;;
2024/01/06 10:32:51;;;;;;;31.37;12.73;;;;;;;;;;5071644;28;20049;-77
2024/01/06 10:35:29;;;;;;;36.33;12.67;;;;;;;;;;5072794;28;20080;-78
2024/01/06 10:37:55;;;;;;;34.33;12.43;;;;;;;;;;5088921;28;20028;-78
2024/01/06 10:40:39;;;;;;;37.83;14.33;;;;;;;;;;5086335;28;20013;-77
2024/01/06 10:43:12;;;;;;;34.93;12.73;;;;;;;;;;5078719;28;20039;-79
2024/01/06 10:45:52;;;;;;;;;;;;;;;;;;5089578;28;20021;-78
2024/01/06 10:48:24;;;;;;;31.50;12.40;;;;;;;;;;5096353;28;19892;-78
2024/01/06 10:50:51;;;;;;;29.40;12.43;;;;;;;;;;5087597;28;20077;-78
2024/01/06 10:53:37;;;;;;;26.63;12.37;;;;;;;;;;5080463;28;20019;-78
2024/01/06 10:56:11;;;;;;;28.70;11.67;;;;;;;;;;5077972;28;20029;-78
2024/01/06 10:58:42;;;;;;;31.77;12.70;;;;;;;;;;5078872;28;20063;-78
2024/01/06 11:01:37;;;;;;;28.30;12.27;;;;;;;;;;5079903;28;20055;-78
2024/01/06 11:04:22;;;;;;;29.37;10.77;;;;;;;;;;5067508;28;20018;-77
2024/01/06 11:07:23;;;;;;;28.40;12.07;;;;;;;;;;5093062;28;20071;-78
2024/01/06 11:09:55;;;;;;;24.63;11.27;;;;;;;;;;5091836;28;20013;-78
2024/01/06 11:12:54;;;;;;;;;;;;;;;;;;;;;
2024/01/06 11:18:46;;;;;;;24.67;10.83;;;;;;;;;;5073338;28;20021;-78
2024/01/06 11:21:27;;;;;;;;;;;;;;;;;;;;;
2024/01/06 11:24:16;;;;;;;;;;;;;;;;;;;;;
2024/01/06 11:27:13;;;;;;;;;;;;;;;;;;;;;
2024/01/06 11:29:56;;;;;;;21.37;10.50;;;;;;;;;;5078075;28;20013;-77
2024/01/06 11:32:36;;;;;;;23.85;10.43;;;;;;;;;;5079247;28;20040;-77
2024/01/06 11:35:11;;;;;;;21.53;9.57;;;;;;;;;;5071008;28;20017;-77
2024/01/06 11:37:40;;;;;;;22.87;10.33;;;;;;;;;;5081195;28;20023;-78
2024/01/06 11:40:20;;;;;;;;;;;;;;;;;;;;;
2024/01/06 11:43:09;;;;;;;19.63;9.50;;;;;;;;;;5087247;28;20017;-78
2024/01/06 11:48:37;;;;;;;21.77;9.57;;;;;;;;;;5074670;28;20005;-79
2024/01/06 11:51:14;;;;;;;;;;;;;;;;;;;;;
2024/01/06 11:53:41;;;;;;;21.93;10.07;;;;;;;;;;5074299;28;20021;-78
2024/01/06 11:56:55;;;;;;;23.73;10.20;;;;;;;;;;5068235;28;20044;-77
2024/01/06 11:59:40;;;;;;;28.73;12.10;;;;;;;;;;5078251;28;20027;-78
2024/01/06 12:02:13;;;;;;;26.93;11.80;;;;;;;;;;5073957;28;20017;-77
2024/01/06 12:05:05;;;;;;;31.92;13.35;;;;;;;;;;5076417;28;20019;-77
2024/01/06 12:07:51;;;;;;;29.33;12.80;;;;;;;;;;5064118;28;20035;-77
2024/01/06 12:10:42;;;;;;;28.57;13.37;;;;;;;;;;5075486;28;20048;-77
2024/01/06 12:16:32;;;;;;;;;;;;;;;;;;;;;
2024/01/06 12:19:37;;;;;;;23.90;11.10;;;;;;;;;;5073061;28;20043;-77
2024/01/06 12:28:42;;;;;;;31.53;13.97;;;;;;;;;;5013261;28;20029;-77
2024/01/06 12:31:21;;;;;;;;;;;;;;;;;;;;;
2024/01/06 12:34:06;;;;;;;;;;;;;;;;;;;;;
2024/01/06 12:45:48;;;;;;;31.03;13.03;;;;;;;;;;4992312;28;20043;-85
2024/01/06 12:48:47;;;;;;;30.53;12.13;;;;;;;;;;4970596;28;20487;-88
2024/01/06 12:51:20;;;;;;;35.97;12.97;;;;;;;;;;5007103;28;20030;-80
2024/01/06 12:54:01;;;;;;;;;;;;;;;;;;;;;
2024/01/06 12:56:36;;;;;;;31.10;13.30;;;;;;;;;;5012101;28;20050;-81
2024/01/06 13:05:19;;;;;;;30.03;13.53;;;;;;;;;;5068149;28;20020;-78
2024/01/06 13:07:57;;;;;;;34.33;13.10;;;;;;;;;;5072006;28;20055;-77
2024/01/06 13:10:36;;;;;;;36.07;14.07;;;;;;;;;;5069077;28;20040;-80
2024/01/06 13:13:20;;;;;;;40.30;15.60;;;;;;;;;;5075574;23;20064;-77
2024/01/06 13:18:56;;;;;;;34.23;13.93;;;;;;;;;;5015663;28;20022;-79
2024/01/06 13:21:35;;;;;;;38.90;14.93;;;;;;;;;;5013329;28;20076;-76
2024/01/06 13:24:40;;;;;;;32.70;13.30;;;;;;;;;;5025178;28;20025;-77
2024/01/06 13:27:39;;;;;;;46.20;17.80;;;;;;;;;;5008210;28;20014;-77
2024/01/06 13:30:15;;;;;;;42.03;17.10;;;;;;;;;;5028469;28;20034;-83
2024/01/06 13:32:51;;;;;;;;;;;;;;;;;;;;;
2024/01/06 13:35:20;;;;;;;38.67;17.53;;;;;;;;;;5013122;28;20054;-86
2024/01/06 13:38:13;;;;;;;34.87;15.53;;;;;;;;;;5007941;28;20015;-78
2024/01/06 13:41:03;;;;;;;34.15;14.07;;;;;;;;;;5030613;28;20035;-81
2024/01/06 13:43:40;;;;;;;35.90;14.50;;;;;;;;;;5010576;28;20038;-83
2024/01/06 13:46:13;;;;;;;35.27;15.90;;;;;;;;;;5007882;28;20037;-83
2024/01/06 13:48:41;;;;;;;39.93;15.07;;;;;;;;;;5011503;28;20133;-80
2024/01/06 13:51:21;;;;;;;35.97;12.73;;;;;;;;;;5015491;28;20029;-81
2024/01/06 13:57:01;;;;;;;36.17;15.00;;;;;;;;;;5007147;28;20045;-80
2024/01/06 13:59:38;;;;;;;40.40;15.63;;;;;;;;;;5004946;28;20064;-85
2024/01/06 14:02:24;;;;;;;38.40;16.23;;;;;;;;;;5012593;28;20106;-83
2024/01/06 14:05:14;;;;;;;48.53;19.20;;;;;;;;;;5006623;28;20035;-78
2024/01/06 14:10:52;;;;;;;45.07;18.40;;;;;;;;;;5016667;28;20046;-82
2024/01/06 14:13:18;;;;;;;48.63;20.80;;;;;;;;;;5005683;28;20045;-82
2024/01/06 14:15:57;;;;;;;;;;;;;;;;;;;;;
2024/01/06 14:21:18;;;;;;;54.70;20.73;;;;;;;;;;5011845;28;20025;-76
2024/01/06 14:23:44;;;;;;;47.10;19.23;;;;;;;;;;5016183;28;20029;-79
2024/01/06 14:26:33;;;;;;;51.63;21.30;;;;;;;;;;5019535;28;20026;-79
2024/01/06 14:29:03;;;;;;;43.47;18.27;;;;;;;;;;5016692;28;20030;-79
2024/01/06 14:31:32;;;;;;;47.43;18.93;;;;;;;;;;5014956;28;20031;-81
2024/01/06 14:33:58;;;;;;;39.77;17.37;;;;;;;;;;5013831;28;20014;-82
2024/01/06 14:36:50;;;;;;;39.43;17.07;;;;;;;;;;5012123;28;20035;-78
2024/01/06 14:39:23;;;;;;;41.90;16.73;;;;;;;;;;5015455;28;20023;-79
2024/01/06 14:41:57;;;;;;;45.23;19.07;;;;;;;;;;5014015;28;20035;-79
2024/01/06 14:44:28;;;;;;;45.23;18.40;;;;;;;;;;5006500;28;20050;-78
2024/01/06 14:47:04;;;;;;;46.37;17.37;;;;;;;;;;5011963;28;20027;-80
2024/01/06 14:49:36;;;;;;;52.97;20.67;;;;;;;;;;5014307;28;20040;-79
2024/01/06 14:52:16;;;;;;;50.10;20.50;;;;;;;;;;5012740;28;20023;-84
2024/01/06 14:54:49;;;;;;;54.17;20.97;;;;;;;;;;5007736;28;20026;-85
2024/01/06 14:57:17;;;;;;;50.03;19.95;;;;;;;;;;5007179;28;20026;-81
2024/01/06 14:59:53;;;;;;;56.30;21.53;;;;;;;;;;5010343;28;20023;-80
2024/01/06 15:02:19;;;;;;;57.53;21.07;;;;;;;;;;5012478;28;20023;-83
2024/01/06 15:04:50;;;;;;;53.97;21.13;;;;;;;;;;5009739;28;20058;-84
2024/01/06 15:07:19;;;;;;;51.77;19.43;;;;;;;;;;5006972;28;20014;-78
2024/01/06 15:09:53;;;;;;;60.80;20.83;;;;;;;;;;5012804;28;20141;-80
2024/01/06 15:12:21;;;;;;;56.53;20.50;;;;;;;;;;5010408;28;20015;-77
2024/01/06 15:15:05;;;;;;;;;;;;;;;;;;;;;
2024/01/06 15:17:59;;;;;;;;;;;;;;;;;;;;;
2024/01/06 15:20:30;;;;;;;70.00;24.93;;;;;;;;;;5012837;28;20057;-79
2024/01/06 15:23:05;;;;;;;69.00;24.50;;;;;;;;;;5014694;28;20036;-77
2024/01/06 15:25:36;;;;;;;59.27;22.87;;;;;;;;;;5010704;28;20037;-86
2024/01/06 15:28:19;;;;;;;61.77;22.87;;;;;;;;;;5007467;28;20029;-78
2024/01/06 15:30:48;;;;;;;63.50;22.45;;;;;;;;;;5007711;28;20045;-80
2024/01/06 15:33:19;;;;;;;58.87;21.60;;;;;;;;;;5012302;28;20026;-78
2024/01/06 15:36:04;;;;;;;53.20;21.13;;;;;;;;;;5007775;28;20436;-79
2024/01/06 15:41:35;;;;;;;65.27;22.53;;;;;;;;;;5003619;28;20015;-78
2024/01/06 15:44:03;;;;;;;66.70;23.95;;;;;;;;;;5007988;28;20018;-77
2024/01/06 15:46:53;;;;;;;66.00;22.70;;;;;;;;;;5013982;28;20038;-77
2024/01/06 15:49:19;;;;;;;63.67;22.47;;;;;;;;;;5026755;28;20060;-79
2024/01/06 15:51:53;;;;;;;65.57;21.23;;;;;;;;;;5010526;28;20039;-80
2024/01/06 15:54:36;;;;;;;71.97;23.52;;;;;;;;;;5008606;28;20034;-86
2024/01/06 15:57:14;;;;;;;63.17;22.57;;;;;;;;;;5006012;28;20039;-79
2024/01/06 15:59:40;;;;;;;59.93;20.30;;;;;;;;;;5005508;28;20026;-87
2024/01/06 16:02:06;;;;;;;59.73;21.67;;;;;;;;;;5002360;28;20046;-82
2024/01/06 16:04:34;;;;;;;60.17;22.53;;;;;;;;;;5007428;28;20022;-81
2024/01/06 16:07:07;;;;;;;61.77;20.43;;;;;;;;;;5006902;28;20034;-78
2024/01/06 16:09:39;;;;;;;59.77;20.33;;;;;;;;;;5006274;28;20039;-78
2024/01/06 16:12:15;;;;;;;48.60;17.70;;;;;;;;;;5002824;28;20045;-79
2024/01/06 16:15:02;;;;;;;51.53;18.57;;;;;;;;;;5008837;28;20018;-82
2024/01/06 16:17:33;;;;;;;54.17;19.17;;;;;;;;;;5008769;28;20022;-80
2024/01/06 16:20:22;;;;;;;57.60;18.97;;;;;;;;;;5006229;28;20018;-80
2024/01/06 16:22:56;;;;;;;58.87;19.53;;;;;;;;;;5007985;28;20077;-78
2024/01/06 16:25:43;;;;;;;53.70;18.20;;;;;;;;;;5009279;28;20045;-78
2024/01/06 16:28:14;;;;;;;57.33;18.30;;;;;;;;;;5004623;28;20102;-78
2024/01/06 16:30:40;;;;;;;46.97;16.73;;;;;;;;;;5009734;28;20098;-83
2024/01/06 16:33:06;;;;;;;49.43;16.77;;;;;;;;;;5000680;28;20112;-86
2024/01/06 16:35:40;;;;;;;46.37;16.57;;;;;;;;;;5000413;28;20034;-90
2024/01/06 16:38:14;;;;;;;45.27;15.77;;;;;;;;;;5001313;28;20050;-83
2024/01/06 16:40:40;;;;;;;43.97;15.53;;;;;;;;;;4997645;28;20061;-88
2024/01/06 16:43:06;;;;;;;44.77;15.23;;;;;;;;;;4988466;28;20034;-92
2024/01/06 16:45:32;;;;;;;46.80;20.17;;;;;;;;;;4996411;28;20088;-91
2024/01/06 16:47:58;;;;;;;45.67;18.63;;;;;;;;;;4999989;28;20073;-92
2024/01/06 16:50:24;;;;;;;50.87;18.40;;;;;;;;;;4995171;28;20097;-90
2024/01/06 16:52:50;;;;;;;53.53;19.50;;;;;;;;;;4992360;28;20403;-91